TimeAKST,TemperatureF,Dew PointF,Humidity,Sea Level PressureIn,VisibilityMPH,Wind Direction,Wind SpeedMPH,Gust SpeedMPH,PrecipitationIn,Events,Conditions,WindDirDegrees,DateUTC
12:16 AM,-38.2,-45.4,67,29.62,10.0,Calm,Calm,-,N/A,,Partly Cloudy,0,2012-12-05 09:16:00
12:36 AM,-38.2,-43.6,74,29.62,4.0,Calm,Calm,-,N/A,,Mostly Cloudy,0,2012-12-05 09:36:00
12:56 AM,-36.4,-41.8,75,29.62,6.0,Calm,Calm,-,N/A,,Overcast,0,2012-12-05 09:56:00
1:16 AM,-34.6,-40.0,75,29.63,2.5,Calm,Calm,-,N/A,,Mostly Cloudy,0,2012-12-05 10:16:00
1:36 AM,-34.6,-41.8,68,29.63,5.0,Calm,Calm,-,N/A,,Scattered Clouds,0,2012-12-05 10:36:00
1:56 AM,-36.4,-41.8,75,29.63,10.0,Calm,Calm,-,N/A,,Scattered Clouds,0,2012-12-05 10:56:00
2:16 AM,-36.4,-43.6,67,29.63,10.0,Calm,Calm,-,N/A,,Scattered Clouds,0,2012-12-05 11:16:00
2:36 AM,-36.4,-41.8,75,29.63,10.0,Calm,Calm,-,N/A,,Mostly Cloudy,0,2012-12-05 11:36:00
2:56 AM,-34.6,-40.0,75,29.63,10.0,Calm,Calm,-,N/A,,Overcast,0,2012-12-05 11:56:00
3:16 AM,-34.6,-40.0,75,29.63,10.0,Calm,Calm,-,N/A,,Overcast,0,2012-12-05 12:16:00
3:36 AM,-34.6,-40.0,75,29.63,10.0,Calm,Calm,-,N/A,,Overcast,0,2012-12-05 12:36:00
3:56 AM,-34.6,-41.8,68,29.63,3.0,Calm,Calm,-,N/A,,Scattered Clouds,0,2012-12-05 12:56:00
5:56 AM,-38.2,-43.6,74,29.62,6.0,Calm,Calm,-,N/A,,Clear,0,2012-12-05 14:56:00
6:16 AM,-36.4,-43.6,67,29.62,10.0,Calm,Calm,-,N/A,,Clear,0,2012-12-05 15:16:00
6:36 AM,-36.4,-43.6,67,29.62,10.0,Calm,Calm,-,N/A,,Clear,0,2012-12-05 15:36:00
6:56 AM,-36.4,-43.6,67,29.62,10.0,Calm,Calm,-,N/A,,Clear,0,2012-12-05 15:56:00
7:16 AM,-38.2,-43.6,74,29.62,8.0,Calm,Calm,-,N/A,,Clear,0,2012-12-05 16:16:00
7:36 AM,-36.4,-43.6,67,29.62,8.0,Calm,Calm,-,N/A,,Clear,0,2012-12-05 16:36:00
7:56 AM,-36.4,-43.6,67,29.62,10.0,Calm,Calm,-,N/A,,Clear,0,2012-12-05 16:56:00
8:16 AM,-36.4,-43.6,67,29.62,10.0,Calm,Calm,-,N/A,,Partly Cloudy,0,2012-12-05 17:16:00
8:36 AM,-36.4,-43.6,67,29.62,10.0,Calm,Calm,-,N/A,,Partly Cloudy,0,2012-12-05 17:36:00
8:56 AM,-36.4,-43.6,67,29.63,10.0,Calm,Calm,-,N/A,,Partly Cloudy,0,2012-12-05 17:56:00
9:16 AM,-36.4,-41.8,75,29.62,10.0,Calm,Calm,-,N/A,,Mostly Cloudy,0,2012-12-05 18:16:00
9:36 AM,-34.6,-38.2,82,29.63,10.0,Calm,Calm,-,N/A,,Overcast,0,2012-12-05 18:36:00
9:56 AM,-32.8,-38.2,75,29.63,10.0,Calm,Calm,-,N/A,,Overcast,0,2012-12-05 18:56:00
10:16 AM,-32.8,-40.0,68,29.63,10.0,Calm,Calm,-,N/A,,Partly Cloudy,0,2012-12-05 19:16:00
10:36 AM,-32.8,-40.0,68,29.62,10.0,Calm,Calm,-,N/A,,Clear,0,2012-12-05 19:36:00
10:56 AM,-34.6,-40.0,75,29.63,10.0,Calm,Calm,-,N/A,,Clear,0,2012-12-05 19:56:00
11:16 AM,-34.6,-40.0,75,29.62,10.0,Calm,Calm,-,N/A,,Clear,0,2012-12-05 20:16:00
11:36 AM,-32.8,-40.0,68,29.62,10.0,Calm,Calm,-,N/A,,Clear,0,2012-12-05 20:36:00
11:56 AM,-32.8,-38.2,75,29.63,10.0,Calm,Calm,-,N/A,,Clear,0,2012-12-05 20:56:00
12:16 PM,-29.2,-36.4,68,29.63,10.0,Calm,Calm,-,N/A,,Clear,0,2012-12-05 21:16:00
12:36 PM,-29.2,-34.6,75,29.63,10.0,Calm,Calm,-,N/A,,Clear,0,2012-12-05 21:36:00
12:56 PM,-29.2,-36.4,68,29.63,10.0,Calm,Calm,-,N/A,,Clear,0,2012-12-05 21:56:00
1:16 PM,-31.0,-36.4,75,29.63,10.0,Calm,Calm,-,N/A,,Clear,0,2012-12-05 22:16:00
1:36 PM,-31.0,-36.4,75,29.63,10.0,Calm,Calm,-,N/A,,Clear,0,2012-12-05 22:36:00
1:56 PM,-31.0,-36.4,75,29.63,10.0,Calm,Calm,-,N/A,,Clear,0,2012-12-05 22:56:00
2:16 PM,-31.0,-36.4,75,29.64,10.0,Calm,Calm,-,N/A,,Clear,0,2012-12-05 23:16:00
2:36 PM,-31.0,-36.4,75,29.64,10.0,Calm,Calm,-,N/A,,Partly Cloudy,0,2012-12-05 23:36:00
2:56 PM,-29.2,-36.4,68,29.64,10.0,Calm,Calm,-,N/A,,Partly Cloudy,0,2012-12-05 23:56:00
3:16 PM,-31.0,-36.4,75,29.64,10.0,Calm,Calm,-,N/A,,Clear,0,2012-12-06 00:16:00
3:36 PM,-31.0,-38.2,68,29.64,10.0,Calm,Calm,-,N/A,,Partly Cloudy,0,2012-12-06 00:36:00
3:56 PM,-32.8,-38.2,75,29.63,10.0,Calm,Calm,-,N/A,,Partly Cloudy,0,2012-12-06 00:56:00
4:16 PM,-32.8,-38.2,75,29.64,10.0,Calm,Calm,-,N/A,,Clear,0,2012-12-06 01:16:00
4:36 PM,-32.8,-38.2,75,29.64,10.0,Calm,Calm,-,N/A,,Clear,0,2012-12-06 01:36:00
4:56 PM,-32.8,-38.2,75,29.64,10.0,Calm,Calm,-,N/A,,Clear,0,2012-12-06 01:56:00
5:16 PM,-32.8,-38.2,75,29.64,10.0,Calm,Calm,-,N/A,,Clear,0,2012-12-06 02:16:00
5:36 PM,-32.8,-38.2,75,29.64,10.0,Calm,Calm,-,N/A,,Clear,0,2012-12-06 02:36:00
5:56 PM,-34.6,-40.0,75,29.64,10.0,Calm,Calm,-,N/A,,Clear,0,2012-12-06 02:56:00
6:16 PM,-32.8,-38.2,75,29.64,10.0,Calm,Calm,-,N/A,,Clear,0,2012-12-06 03:16:00
6:36 PM,-34.6,-40.0,75,29.65,10.0,Calm,Calm,-,N/A,,Clear,0,2012-12-06 03:36:00
6:56 PM,-34.6,-40.0,75,29.65,10.0,Calm,Calm,-,N/A,,Clear,0,2012-12-06 03:56:00
7:16 PM,-34.6,-40.0,75,29.65,10.0,Calm,Calm,-,N/A,,Clear,0,2012-12-06 04:16:00
7:36 PM,-34.6,-41.8,68,29.65,10.0,Calm,Calm,-,N/A,,Clear,0,2012-12-06 04:36:00
7:56 PM,-34.6,-41.8,68,29.66,10.0,Calm,Calm,-,N/A,,Clear,0,2012-12-06 04:56:00
8:16 PM,-34.6,-41.8,68,29.66,10.0,Calm,Calm,-,N/A,,Clear,0,2012-12-06 05:16:00
8:36 PM,-34.6,-41.8,68,29.66,10.0,Calm,Calm,-,N/A,,Clear,0,2012-12-06 05:36:00
8:56 PM,-34.6,-41.8,68,29.66,10.0,Calm,Calm,-,N/A,,Clear,0,2012-12-06 05:56:00
9:16 PM,-34.6,-41.8,68,29.66,10.0,Calm,Calm,-,N/A,,Clear,0,2012-12-06 06:16:00
9:36 PM,-34.6,-41.8,68,29.67,10.0,Calm,Calm,-,N/A,,Clear,0,2012-12-06 06:36:00
9:56 PM,-34.6,-41.8,68,29.67,10.0,Calm,Calm,-,N/A,,Clear,0,2012-12-06 06:56:00
10:16 PM,-34.6,-41.8,68,29.67,10.0,Calm,Calm,-,N/A,,Clear,0,2012-12-06 07:16:00
10:36 PM,-34.6,-41.8,68,29.68,10.0,Calm,Calm,-,N/A,,Clear,0,2012-12-06 07:36:00
10:56 PM,-36.4,-41.8,75,29.68,10.0,Calm,Calm,-,N/A,,Clear,0,2012-12-06 07:56:00
11:16 PM,-34.6,-41.8,68,29.68,10.0,Calm,Calm,-,N/A,,Clear,0,2012-12-06 08:16:00
11:36 PM,-36.4,-41.8,75,29.68,10.0,Calm,Calm,-,N/A,,Clear,0,2012-12-06 08:36:00
11:56 PM,-36.4,-41.8,75,29.69,10.0,Calm,Calm,-,N/A,,Clear,0,2012-12-06 08:56:00